Time,TemperatureF,DewpointF,PressureIn,WindDirection,WindDirectionDegrees,WindSpeedMPH,WindSpeedGustMPH,Humidity,HourlyPrecipIn,Conditions,Clouds,dailyrainin,SoftwareType,DateUTC
2013-07-03 00:10:00,76.0,48.0,-100.00,West,280,8.0,13.0,37,-99.99,,,-99.99,,2013-07-03 07:10:00,
2013-07-03 02:10:00,73.0,49.0,-100.00,WNW,295,6.0,12.0,42,-99.99,,,-99.99,,2013-07-03 09:10:00,
2013-07-03 02:14:00,74.0,49.0,-100.00,WNW,295,6.0,12.0,41,-99.99,,,-99.99,,2013-07-03 09:14:00,
2013-07-03 05:10:00,63.0,49.0,-100.00,North,360,2.0,9.0,60,-99.99,,,-99.99,,2013-07-03 12:10:00,
2013-07-03 07:10:00,69.0,49.0,-100.00,WNW,290,7.0,12.0,48,-99.99,,,-99.99,,2013-07-03 14:10:00,
2013-07-03 07:14:00,66.0,49.0,-100.00,NW,310,6.0,12.0,54,-99.99,,,-99.99,,2013-07-03 14:14:00,
2013-07-03 09:14:00,73.0,49.0,-100.00,WNW,300,7.0,13.0,42,-99.99,,,-99.99,,2013-07-03 16:14:00,
2013-07-03 09:20:00,77.0,50.0,-100.00,WNW,290,6.0,9.0,38,-99.99,,,-99.99,,2013-07-03 16:20:00,
2013-07-03 10:10:00,82.0,51.0,-100.00,West,280,6.0,10.0,34,-99.99,,,-99.99,,2013-07-03 17:10:00,
2013-07-03 10:14:00,77.0,50.0,-100.00,WNW,290,6.0,9.0,38,-99.99,,,-99.99,,2013-07-03 17:14:00,
2013-07-03 11:15:00,87.0,52.0,-100.00,NW,325,3.0,9.0,30,-99.99,,,-99.99,,2013-07-03 18:15:00,
2013-07-03 15:10:00,94.0,51.0,-100.00,North,360,3.0,10.0,23,-99.99,,,-99.99,,2013-07-03 22:10:00,
2013-07-03 15:12:00,95.0,51.0,-100.00,North,355,5.0,9.0,22,-99.99,,,-99.99,,2013-07-03 22:12:00,
2013-07-03 17:13:00,91.0,48.0,-100.00,North,360,6.0,13.0,22,-99.99,,,-99.99,,2013-07-04 00:13:00,
2013-07-03 18:10:00,89.0,47.0,-100.00,North,360,5.0,12.0,23,-99.99,,,-99.99,,2013-07-04 01:10:00,
2013-07-03 20:10:00,81.0,42.0,-100.00,North,360,3.0,13.0,25,-99.99,,,-99.99,,2013-07-04 03:10:00,
2013-07-03 20:13:00,86.0,45.0,-100.00,North,355,3.0,13.0,23,-99.99,,,-99.99,,2013-07-04 03:13:00,
2013-07-03 21:02:00,81.0,42.0,-100.00,North,360,3.0,13.0,25,-99.99,,,-99.99,,2013-07-04 04:02:00,
2013-07-03 22:12:00,73.0,39.0,-100.00,WNW,295,5.0,6.0,29,-99.99,,,-99.99,,2013-07-04 05:12:00,
2013-07-03 22:20:00,73.0,42.0,-100.00,WNW,300,2.0,10.0,32,-99.99,,,-99.99,,2013-07-04 05:20:00,
2013-07-03 23:10:00,70.0,41.0,-100.00,NW,305,3.0,7.0,34,-99.99,,,-99.99,,2013-07-04 06:10:00,
2013-07-03 23:11:00,73.0,42.0,-100.00,WNW,300,2.0,10.0,32,-99.99,,,-99.99,,2013-07-04 06:11:00,